sensor_id;sensor_type;location;lat;lon;timestamp;pressure;altitude;pressure_sealevel;temperature;humidity
34712;BME280;20941;42.408;25.634;2022-07-23T00:02:23;99610.75;;;22.25;46.87
34712;BME280;20941;42.408;25.634;2022-07-23T00:04:49;99608.41;;;22.35;46.94
34712;BME280;20941;42.408;25.634;2022-07-23T00:07:14;99616.81;;;22.51;46.64
34712;BME280;20941;42.408;25.634;2022-07-23T00:09:39;99590.22;;;22.50;46.40
34712;BME280;20941;42.408;25.634;2022-07-23T00:12:05;99610.94;;;22.74;46.17
34712;BME280;20941;42.408;25.634;2022-07-23T00:14:30;99606.59;;;22.87;45.72
34712;BME280;20941;42.408;25.634;2022-07-23T00:16:56;99610.78;;;22.97;45.77
34712;BME280;20941;42.408;25.634;2022-07-23T00:19:21;99585.25;;;22.85;45.94
34712;BME280;20941;42.408;25.634;2022-07-23T00:21:47;99580.34;;;22.85;45.87
34712;BME280;20941;42.408;25.634;2022-07-23T00:24:12;99583.72;;;22.95;46.01
34712;BME280;20941;42.408;25.634;2022-07-23T00:26:37;99609.31;;;23.14;45.63
34712;BME280;20941;42.408;25.634;2022-07-23T00:29:03;99571.41;;;22.94;45.86
34712;BME280;20941;42.408;25.634;2022-07-23T00:31:28;99604.22;;;22.97;45.25
34712;BME280;20941;42.408;25.634;2022-07-23T00:33:54;99606.56;;;22.84;44.83
34712;BME280;20941;42.408;25.634;2022-07-23T00:36:23;99587.34;;;22.50;45.19
34712;BME280;20941;42.408;25.634;2022-07-23T00:38:49;99602.84;;;22.46;45.58
34712;BME280;20941;42.408;25.634;2022-07-23T00:41:15;99596.97;;;22.35;46.32
34712;BME280;20941;42.408;25.634;2022-07-23T00:43:40;99597.66;;;22.24;46.46
34712;BME280;20941;42.408;25.634;2022-07-23T00:46:06;99595.81;;;22.09;46.23
34712;BME280;20941;42.408;25.634;2022-07-23T00:48:31;99602.22;;;21.99;46.79
34712;BME280;20941;42.408;25.634;2022-07-23T00:50:57;99605.25;;;21.83;47.41
34712;BME280;20941;42.408;25.634;2022-07-23T00:53:24;99603.00;;;21.69;48.01
34712;BME280;20941;42.408;25.634;2022-07-23T00:55:49;99599.22;;;21.61;48.27
34712;BME280;20941;42.408;25.634;2022-07-23T00:58:16;99599.69;;;21.40;48.68
34712;BME280;20941;42.408;25.634;2022-07-23T01:00:41;99583.22;;;21.33;48.73
34712;BME280;20941;42.408;25.634;2022-07-23T01:03:07;99605.50;;;21.47;48.42
34712;BME280;20941;42.408;25.634;2022-07-23T01:05:33;99598.13;;;21.46;48.53
34712;BME280;20941;42.408;25.634;2022-07-23T01:07:58;99582.41;;;21.32;48.68
34712;BME280;20941;42.408;25.634;2022-07-23T01:10:25;99598.03;;;21.39;48.82
34712;BME280;20941;42.408;25.634;2022-07-23T01:12:57;99594.72;;;21.37;49.06
34712;BME280;20941;42.408;25.634;2022-07-23T01:15:22;99600.69;;;21.28;49.08
34712;BME280;20941;42.408;25.634;2022-07-23T01:17:48;99577.63;;;21.17;49.27
34712;BME280;20941;42.408;25.634;2022-07-23T01:20:14;99571.84;;;21.13;49.38
34712;BME280;20941;42.408;25.634;2022-07-23T01:22:39;99585.47;;;21.20;50.06
34712;BME280;20941;42.408;25.634;2022-07-23T01:25:05;99585.00;;;21.18;49.87
34712;BME280;20941;42.408;25.634;2022-07-23T01:27:31;99579.75;;;21.20;49.98
34712;BME280;20941;42.408;25.634;2022-07-23T01:29:57;99588.31;;;21.20;50.14
34712;BME280;20941;42.408;25.634;2022-07-23T01:32:24;99578.03;;;21.15;50.26
34712;BME280;20941;42.408;25.634;2022-07-23T01:34:50;99572.13;;;21.05;50.60
34712;BME280;20941;42.408;25.634;2022-07-23T01:37:15;99576.44;;;21.18;50.76
34712;BME280;20941;42.408;25.634;2022-07-23T01:39:40;99581.38;;;21.21;50.95
34712;BME280;20941;42.408;25.634;2022-07-23T01:42:06;99580.63;;;21.24;51.47
34712;BME280;20941;42.408;25.634;2022-07-23T01:44:32;99578.97;;;21.23;51.17
34712;BME280;20941;42.408;25.634;2022-07-23T01:46:57;99563.34;;;21.17;51.32
34712;BME280;20941;42.408;25.634;2022-07-23T01:49:23;99571.66;;;21.03;51.54
34712;BME280;20941;42.408;25.634;2022-07-23T01:51:48;99562.72;;;21.04;51.52
34712;BME280;20941;42.408;25.634;2022-07-23T01:56:52;99581.16;;;21.07;51.78
34712;BME280;20941;42.408;25.634;2022-07-23T01:59:17;99571.41;;;20.88;52.18
34712;BME280;20941;42.408;25.634;2022-07-23T02:01:43;99578.22;;;20.80;52.40
34712;BME280;20941;42.408;25.634;2022-07-23T02:04:08;99577.75;;;20.78;51.93
34712;BME280;20941;42.408;25.634;2022-07-23T02:06:34;99554.47;;;20.56;52.25
34712;BME280;20941;42.408;25.634;2022-07-23T02:08:59;99566.72;;;20.57;52.31
34712;BME280;20941;42.408;25.634;2022-07-23T02:11:25;99579.75;;;20.54;53.04
34712;BME280;20941;42.408;25.634;2022-07-23T02:13:50;99577.94;;;20.46;53.63
34712;BME280;20941;42.408;25.634;2022-07-23T02:16:15;99573.88;;;20.47;53.36
34712;BME280;20941;42.408;25.634;2022-07-23T02:18:41;99578.25;;;20.41;53.80
34712;BME280;20941;42.408;25.634;2022-07-23T02:21:06;99576.38;;;20.29;54.52
34712;BME280;20941;42.408;25.634;2022-07-23T02:23:32;99550.59;;;20.06;54.74
34712;BME280;20941;42.408;25.634;2022-07-23T02:25:57;99573.75;;;20.20;54.78
34712;BME280;20941;42.408;25.634;2022-07-23T02:28:22;99586.38;;;20.19;54.94
34712;BME280;20941;42.408;25.634;2022-07-23T02:30:48;99585.09;;;20.16;55.20
34712;BME280;20941;42.408;25.634;2022-07-23T02:33:13;99576.91;;;20.15;55.13
34712;BME280;20941;42.408;25.634;2022-07-23T02:35:39;99583.38;;;20.12;55.41
34712;BME280;20941;42.408;25.634;2022-07-23T02:38:04;99586.22;;;20.12;55.66
34712;BME280;20941;42.408;25.634;2022-07-23T02:40:30;99580.88;;;20.10;55.68
34712;BME280;20941;42.408;25.634;2022-07-23T02:42:55;99588.63;;;20.10;56.07
34712;BME280;20941;42.408;25.634;2022-07-23T02:45:21;99589.84;;;20.09;56.22
34712;BME280;20941;42.408;25.634;2022-07-23T02:47:46;99581.53;;;20.03;56.34
34712;BME280;20941;42.408;25.634;2022-07-23T02:50:12;99589.00;;;20.08;56.26
34712;BME280;20941;42.408;25.634;2022-07-23T02:52:38;99581.53;;;20.03;56.55
34712;BME280;20941;42.408;25.634;2022-07-23T02:55:03;99597.94;;;20.07;56.61
34712;BME280;20941;42.408;25.634;2022-07-23T02:57:29;99591.78;;;20.04;56.76
34712;BME280;20941;42.408;25.634;2022-07-23T02:59:55;99607.25;;;20.03;57.26
34712;BME280;20941;42.408;25.634;2022-07-23T03:02:20;99585.13;;;19.81;57.77
34712;BME280;20941;42.408;25.634;2022-07-23T03:04:46;99608.75;;;19.81;58.12
34712;BME280;20941;42.408;25.634;2022-07-23T03:07:11;99594.69;;;19.72;58.34
34712;BME280;20941;42.408;25.634;2022-07-23T03:09:37;99581.31;;;19.57;58.22
34712;BME280;20941;42.408;25.634;2022-07-23T03:12:03;99600.25;;;19.65;58.63
34712;BME280;20941;42.408;25.634;2022-07-23T03:14:28;99606.69;;;19.62;58.90
34712;BME280;20941;42.408;25.634;2022-07-23T03:16:54;99620.28;;;19.69;58.75
34712;BME280;20941;42.408;25.634;2022-07-23T03:19:19;99614.28;;;19.74;58.87
34712;BME280;20941;42.408;25.634;2022-07-23T03:21:45;99617.31;;;19.81;58.45
34712;BME280;20941;42.408;25.634;2022-07-23T03:24:11;99613.09;;;19.91;58.11
34712;BME280;20941;42.408;25.634;2022-07-23T03:26:36;99595.59;;;19.93;57.93
34712;BME280;20941;42.408;25.634;2022-07-23T03:29:03;99612.06;;;20.19;57.35
34712;BME280;20941;42.408;25.634;2022-07-23T03:31:29;99615.38;;;20.41;56.95
34712;BME280;20941;42.408;25.634;2022-07-23T03:33:56;99616.81;;;20.50;56.91
34712;BME280;20941;42.408;25.634;2022-07-23T03:36:21;99611.38;;;20.65;55.97
34712;BME280;20941;42.408;25.634;2022-07-23T03:38:47;99616.56;;;20.79;55.45
34712;BME280;20941;42.408;25.634;2022-07-23T03:41:12;99614.34;;;20.92;55.16
34712;BME280;20941;42.408;25.634;2022-07-23T03:43:37;99613.81;;;21.06;54.63
34712;BME280;20941;42.408;25.634;2022-07-23T03:46:03;99599.19;;;21.11;53.87
34712;BME280;20941;42.408;25.634;2022-07-23T03:48:28;99601.19;;;21.33;53.46
34712;BME280;20941;42.408;25.634;2022-07-23T03:50:54;99616.56;;;21.72;52.91
34712;BME280;20941;42.408;25.634;2022-07-23T03:53:19;99624.41;;;22.05;51.33
34712;BME280;20941;42.408;25.634;2022-07-23T03:55:45;99610.97;;;22.40;49.73
34712;BME280;20941;42.408;25.634;2022-07-23T03:58:10;99594.97;;;22.73;48.87
34712;BME280;20941;42.408;25.634;2022-07-23T04:00:35;99597.00;;;23.14;46.71
34712;BME280;20941;42.408;25.634;2022-07-23T04:03:01;99610.56;;;23.62;46.01
34712;BME280;20941;42.408;25.634;2022-07-23T04:05:27;99596.34;;;23.83;45.45
34712;BME280;20941;42.408;25.634;2022-07-23T04:07:52;99606.00;;;24.20;45.51
34712;BME280;20941;42.408;25.634;2022-07-23T04:10:18;99607.78;;;24.54;44.03
34712;BME280;20941;42.408;25.634;2022-07-23T04:12:43;99611.59;;;24.87;45.73
34712;BME280;20941;42.408;25.634;2022-07-23T04:15:09;99607.97;;;25.08;43.63
34712;BME280;20941;42.408;25.634;2022-07-23T04:17:34;99621.16;;;25.41;44.41
34712;BME280;20941;42.408;25.634;2022-07-23T04:20:00;99612.09;;;25.54;43.07
34712;BME280;20941;42.408;25.634;2022-07-23T04:22:25;99603.84;;;25.77;42.95
34712;BME280;20941;42.408;25.634;2022-07-23T04:24:51;99621.09;;;26.14;44.63
34712;BME280;20941;42.408;25.634;2022-07-23T04:27:16;99617.72;;;26.37;44.12
34712;BME280;20941;42.408;25.634;2022-07-23T04:29:41;99596.69;;;26.43;43.58
34712;BME280;20941;42.408;25.634;2022-07-23T04:32:07;99611.41;;;26.67;43.25
34712;BME280;20941;42.408;25.634;2022-07-23T04:34:32;99621.25;;;26.73;42.66
34712;BME280;20941;42.408;25.634;2022-07-23T04:36:58;99613.44;;;26.70;42.46
34712;BME280;20941;42.408;25.634;2022-07-23T04:39:23;99597.06;;;26.53;42.45
34712;BME280;20941;42.408;25.634;2022-07-23T04:41:49;99611.88;;;26.55;42.52
34712;BME280;20941;42.408;25.634;2022-07-23T04:44:14;99616.03;;;26.50;43.17
34712;BME280;20941;42.408;25.634;2022-07-23T04:46:40;99613.13;;;26.54;43.27
34712;BME280;20941;42.408;25.634;2022-07-23T04:49:05;99615.56;;;26.59;43.33
34712;BME280;20941;42.408;25.634;2022-07-23T04:51:33;99613.50;;;26.56;43.35
34712;BME280;20941;42.408;25.634;2022-07-23T04:53:58;99581.88;;;26.45;43.96
34712;BME280;20941;42.408;25.634;2022-07-23T04:56:23;99611.78;;;26.69;43.72
34712;BME280;20941;42.408;25.634;2022-07-23T04:58:49;99595.31;;;26.70;44.14
34712;BME280;20941;42.408;25.634;2022-07-23T05:01:14;99596.13;;;26.74;44.81
34712;BME280;20941;42.408;25.634;2022-07-23T05:03:40;99608.53;;;26.74;44.98
34712;BME280;20941;42.408;25.634;2022-07-23T05:06:05;99583.13;;;26.37;44.83
34712;BME280;20941;42.408;25.634;2022-07-23T05:08:31;99600.38;;;26.48;44.66
34712;BME280;20941;42.408;25.634;2022-07-23T05:10:56;99591.38;;;26.35;44.06
34712;BME280;20941;42.408;25.634;2022-07-23T05:13:22;99624.69;;;26.47;42.87
34712;BME280;20941;42.408;25.634;2022-07-23T05:15:47;99611.91;;;26.48;43.00
34712;BME280;20941;42.408;25.634;2022-07-23T05:18:13;99628.41;;;26.36;43.15
34712;BME280;20941;42.408;25.634;2022-07-23T05:20:38;99616.03;;;26.47;43.18
34712;BME280;20941;42.408;25.634;2022-07-23T05:23:04;99620.19;;;26.38;43.25
34712;BME280;20941;42.408;25.634;2022-07-23T05:25:29;99607.88;;;26.27;43.69
34712;BME280;20941;42.408;25.634;2022-07-23T05:27:55;99612.84;;;26.23;43.68
34712;BME280;20941;42.408;25.634;2022-07-23T05:30:20;99621.84;;;26.32;43.75
34712;BME280;20941;42.408;25.634;2022-07-23T05:32:46;99625.97;;;26.35;43.35
34712;BME280;20941;42.408;25.634;2022-07-23T05:35:12;99602.13;;;26.20;43.25
34712;BME280;20941;42.408;25.634;2022-07-23T05:37:37;99629.25;;;26.40;43.04
34712;BME280;20941;42.408;25.634;2022-07-23T05:40:07;99624.28;;;26.45;43.32
34712;BME280;20941;42.408;25.634;2022-07-23T05:42:37;99616.38;;;26.56;42.83
34712;BME280;20941;42.408;25.634;2022-07-23T05:45:04;99612.25;;;26.64;42.54
34712;BME280;20941;42.408;25.634;2022-07-23T05:47:42;99602.38;;;26.58;42.73
34712;BME280;20941;42.408;25.634;2022-07-23T05:50:09;99613.47;;;26.63;42.70
34712;BME280;20941;42.408;25.634;2022-07-23T05:52:34;99583.88;;;26.55;42.61
34712;BME280;20941;42.408;25.634;2022-07-23T05:55:00;99587.09;;;26.68;43.15
34712;BME280;20941;42.408;25.634;2022-07-23T05:57:25;99605.94;;;26.91;42.51
34712;BME280;20941;42.408;25.634;2022-07-23T05:59:50;99596.03;;;26.96;42.75
34712;BME280;20941;42.408;25.634;2022-07-23T06:02:16;99598.03;;;27.02;42.36
34712;BME280;20941;42.408;25.634;2022-07-23T06:04:41;99608.22;;;27.18;42.49
34712;BME280;20941;42.408;25.634;2022-07-23T06:07:07;99585.94;;;27.18;42.72
34712;BME280;20941;42.408;25.634;2022-07-23T06:09:32;99606.47;;;27.31;42.38
34712;BME280;20941;42.408;25.634;2022-07-23T06:11:58;99600.25;;;27.36;42.84
34712;BME280;20941;42.408;25.634;2022-07-23T06:14:23;99600.66;;;27.42;42.16
34712;BME280;20941;42.408;25.634;2022-07-23T06:16:48;99585.84;;;27.33;42.52
34712;BME280;20941;42.408;25.634;2022-07-23T06:19:14;99603.00;;;27.58;41.90
34712;BME280;20941;42.408;25.634;2022-07-23T06:21:39;99606.22;;;27.64;41.68
34712;BME280;20941;42.408;25.634;2022-07-23T06:24:05;99606.25;;;27.60;40.68
34712;BME280;20941;42.408;25.634;2022-07-23T06:26:31;99596.25;;;27.72;40.47
34712;BME280;20941;42.408;25.634;2022-07-23T06:28:56;99594.84;;;27.88;40.24
34712;BME280;20941;42.408;25.634;2022-07-23T06:31:21;99597.72;;;27.91;40.15
34712;BME280;20941;42.408;25.634;2022-07-23T06:33:47;99592.41;;;27.86;40.11
34712;BME280;20941;42.408;25.634;2022-07-23T06:36:12;99597.59;;;28.06;39.06
34712;BME280;20941;42.408;25.634;2022-07-23T06:38:38;99598.28;;;28.17;39.27
34712;BME280;20941;42.408;25.634;2022-07-23T06:41:03;99568.97;;;28.15;39.20
34712;BME280;20941;42.408;25.634;2022-07-23T06:43:30;99582.38;;;28.32;38.38
34712;BME280;20941;42.408;25.634;2022-07-23T06:45:56;99574.91;;;28.35;38.47
34712;BME280;20941;42.408;25.634;2022-07-23T06:48:21;99569.56;;;28.33;38.60
34712;BME280;20941;42.408;25.634;2022-07-23T06:50:48;99573.25;;;28.38;38.59
34712;BME280;20941;42.408;25.634;2022-07-23T06:53:13;99582.09;;;28.54;38.94
34712;BME280;20941;42.408;25.634;2022-07-23T06:55:39;99590.66;;;28.65;38.03
34712;BME280;20941;42.408;25.634;2022-07-23T06:58:05;99574.03;;;28.73;37.79
34712;BME280;20941;42.408;25.634;2022-07-23T07:00:31;99576.72;;;28.87;37.32
34712;BME280;20941;42.408;25.634;2022-07-23T07:02:57;99583.16;;;28.98;37.79
34712;BME280;20941;42.408;25.634;2022-07-23T07:05:23;99585.44;;;29.11;37.03
34712;BME280;20941;42.408;25.634;2022-07-23T07:07:50;99580.63;;;29.28;36.50
34712;BME280;20941;42.408;25.634;2022-07-23T07:10:16;99580.22;;;29.29;37.02
34712;BME280;20941;42.408;25.634;2022-07-23T07:12:42;99558.19;;;29.36;36.47
34712;BME280;20941;42.408;25.634;2022-07-23T07:15:08;99581.34;;;29.59;36.27
34712;BME280;20941;42.408;25.634;2022-07-23T07:17:33;99586.00;;;29.77;35.95
34712;BME280;20941;42.408;25.634;2022-07-23T07:19:59;99569.63;;;29.90;35.37
34712;BME280;20941;42.408;25.634;2022-07-23T07:22:25;99572.53;;;29.90;34.96
34712;BME280;20941;42.408;25.634;2022-07-23T07:24:50;99578.44;;;30.07;34.70
34712;BME280;20941;42.408;25.634;2022-07-23T07:27:16;99560.38;;;30.19;33.98
34712;BME280;20941;42.408;25.634;2022-07-23T07:29:41;99563.63;;;30.21;34.31
34712;BME280;20941;42.408;25.634;2022-07-23T07:32:07;99575.00;;;30.32;34.01
34712;BME280;20941;42.408;25.634;2022-07-23T07:34:32;99561.00;;;30.47;33.33
34712;BME280;20941;42.408;25.634;2022-07-23T07:36:57;99574.69;;;30.67;32.61
34712;BME280;20941;42.408;25.634;2022-07-23T07:39:23;99569.91;;;30.77;33.07
34712;BME280;20941;42.408;25.634;2022-07-23T07:41:48;99552.75;;;30.66;32.54
34712;BME280;20941;42.408;25.634;2022-07-23T07:44:14;99559.28;;;30.70;33.19
34712;BME280;20941;42.408;25.634;2022-07-23T07:46:39;99550.28;;;30.64;32.83
34712;BME280;20941;42.408;25.634;2022-07-23T07:49:05;99556.06;;;30.84;33.10
34712;BME280;20941;42.408;25.634;2022-07-23T07:51:30;99552.81;;;30.99;32.83
34712;BME280;20941;42.408;25.634;2022-07-23T07:53:56;99548.69;;;31.16;32.06
34712;BME280;20941;42.408;25.634;2022-07-23T07:56:21;99552.69;;;31.23;32.48
34712;BME280;20941;42.408;25.634;2022-07-23T07:58:47;99548.66;;;31.33;33.02
34712;BME280;20941;42.408;25.634;2022-07-23T08:01:12;99533.41;;;31.45;32.63
34712;BME280;20941;42.408;25.634;2022-07-23T08:03:37;99546.13;;;31.68;32.03
34712;BME280;20941;42.408;25.634;2022-07-23T08:06:03;99530.31;;;31.52;31.69
34712;BME280;20941;42.408;25.634;2022-07-23T08:08:28;99548.31;;;31.47;31.95
34712;BME280;20941;42.408;25.634;2022-07-23T08:10:54;99543.31;;;31.48;32.01
34712;BME280;20941;42.408;25.634;2022-07-23T08:13:19;99546.22;;;31.48;32.19
34712;BME280;20941;42.408;25.634;2022-07-23T08:15:45;99536.03;;;31.56;32.56
34712;BME280;20941;42.408;25.634;2022-07-23T08:18:10;99529.19;;;31.79;32.95
34712;BME280;20941;42.408;25.634;2022-07-23T08:20:36;99534.88;;;31.99;31.51
34712;BME280;20941;42.408;25.634;2022-07-23T08:23:08;99528.19;;;32.15;31.09
34712;BME280;20941;42.408;25.634;2022-07-23T08:25:36;99525.22;;;32.32;30.81
34712;BME280;20941;42.408;25.634;2022-07-23T08:28:05;99521.50;;;32.44;30.78
34712;BME280;20941;42.408;25.634;2022-07-23T08:30:32;99524.66;;;32.63;30.68
34712;BME280;20941;42.408;25.634;2022-07-23T08:33:03;99520.53;;;32.77;30.25
34712;BME280;20941;42.408;25.634;2022-07-23T08:35:41;99525.78;;;32.82;29.70
34712;BME280;20941;42.408;25.634;2022-07-23T08:38:09;99525.91;;;32.91;29.68
34712;BME280;20941;42.408;25.634;2022-07-23T08:40:37;99524.47;;;32.96;29.64
34712;BME280;20941;42.408;25.634;2022-07-23T08:43:05;99500.38;;;32.83;29.19
34712;BME280;20941;42.408;25.634;2022-07-23T08:45:35;99522.03;;;33.07;28.86
34712;BME280;20941;42.408;25.634;2022-07-23T08:48:02;99522.50;;;33.19;29.17
34712;BME280;20941;42.408;25.634;2022-07-23T08:50:29;99523.66;;;33.34;28.65
34712;BME280;20941;42.408;25.634;2022-07-23T08:52:54;99512.94;;;33.31;28.79
34712;BME280;20941;42.408;25.634;2022-07-23T08:55:22;99519.91;;;33.47;28.67
34712;BME280;20941;42.408;25.634;2022-07-23T08:57:49;99502.84;;;33.58;27.98
34712;BME280;20941;42.408;25.634;2022-07-23T09:00:15;99511.13;;;33.82;27.43
34712;BME280;20941;42.408;25.634;2022-07-23T09:02:42;99507.50;;;33.90;27.72
34712;BME280;20941;42.408;25.634;2022-07-23T09:05:09;99516.19;;;34.03;27.16
34712;BME280;20941;42.408;25.634;2022-07-23T09:07:37;99508.34;;;34.13;26.85
34712;BME280;20941;42.408;25.634;2022-07-23T09:10:10;99512.13;;;34.23;26.63
34712;BME280;20941;42.408;25.634;2022-07-23T09:12:37;99503.03;;;34.21;27.29
34712;BME280;20941;42.408;25.634;2022-07-23T09:15:07;99503.31;;;34.36;27.25
34712;BME280;20941;42.408;25.634;2022-07-23T09:17:41;99505.53;;;34.54;26.92
34712;BME280;20941;42.408;25.634;2022-07-23T09:20:11;99497.13;;;34.65;26.96
34712;BME280;20941;42.408;25.634;2022-07-23T09:22:38;99491.63;;;34.58;26.56
34712;BME280;20941;42.408;25.634;2022-07-23T09:25:09;99489.00;;;34.60;26.61
34712;BME280;20941;42.408;25.634;2022-07-23T09:28:05;99492.94;;;34.66;26.46
34712;BME280;20941;42.408;25.634;2022-07-23T09:30:33;99488.06;;;34.63;26.50
34712;BME280;20941;42.408;25.634;2022-07-23T09:36:06;99484.00;;;35.01;26.80
34712;BME280;20941;42.408;25.634;2022-07-23T09:38:34;99480.44;;;35.07;25.99
34712;BME280;20941;42.408;25.634;2022-07-23T09:41:10;99481.94;;;35.21;26.26
34712;BME280;20941;42.408;25.634;2022-07-23T09:43:36;99477.25;;;35.32;25.78
34712;BME280;20941;42.408;25.634;2022-07-23T09:46:24;99476.00;;;35.52;25.34
34712;BME280;20941;42.408;25.634;2022-07-23T09:48:54;99468.22;;;35.49;25.65
34712;BME280;20941;42.408;25.634;2022-07-23T09:51:22;99469.84;;;35.59;25.14
34712;BME280;20941;42.408;25.634;2022-07-23T09:53:53;99463.00;;;35.44;25.03
34712;BME280;20941;42.408;25.634;2022-07-23T09:56:20;99463.28;;;35.37;24.92
34712;BME280;20941;42.408;25.634;2022-07-23T09:58:45;99460.06;;;35.34;25.64
34712;BME280;20941;42.408;25.634;2022-07-23T10:01:15;99470.47;;;35.45;26.03
34712;BME280;20941;42.408;25.634;2022-07-23T10:03:41;99449.19;;;35.54;24.89
34712;BME280;20941;42.408;25.634;2022-07-23T10:06:12;99433.44;;;35.60;25.30
34712;BME280;20941;42.408;25.634;2022-07-23T10:08:40;99454.72;;;35.79;24.41
34712;BME280;20941;42.408;25.634;2022-07-23T10:11:06;99455.06;;;35.91;24.34
34712;BME280;20941;42.408;25.634;2022-07-23T10:13:32;99449.81;;;35.86;24.54
34712;BME280;20941;42.408;25.634;2022-07-23T10:15:58;99440.91;;;35.89;24.80
34712;BME280;20941;42.408;25.634;2022-07-23T10:18:25;99438.31;;;35.91;24.52
34712;BME280;20941;42.408;25.634;2022-07-23T10:20:50;99436.03;;;36.05;24.78
34712;BME280;20941;42.408;25.634;2022-07-23T10:23:31;99425.59;;;36.13;24.61
34712;BME280;20941;42.408;25.634;2022-07-23T10:26:09;99424.25;;;36.23;24.77
34712;BME280;20941;42.408;25.634;2022-07-23T10:34:05;99415.16;;;36.40;23.67
34712;BME280;20941;42.408;25.634;2022-07-23T10:36:49;99414.13;;;36.43;24.10
34712;BME280;20941;42.408;25.634;2022-07-23T10:39:26;99411.22;;;36.43;23.94
34712;BME280;20941;42.408;25.634;2022-07-23T10:42:07;99410.19;;;36.55;23.67
34712;BME280;20941;42.408;25.634;2022-07-23T10:44:44;99395.28;;;36.44;23.32
34712;BME280;20941;42.408;25.634;2022-07-23T10:47:11;99407.22;;;36.65;23.57
34712;BME280;20941;42.408;25.634;2022-07-23T10:49:37;99395.13;;;36.72;23.81
34712;BME280;20941;42.408;25.634;2022-07-23T10:52:21;99388.22;;;36.84;23.64
34712;BME280;20941;42.408;25.634;2022-07-23T10:57:49;99365.06;;;37.20;22.36
34712;BME280;20941;42.408;25.634;2022-07-23T11:00:16;99375.19;;;37.34;22.91
34712;BME280;20941;42.408;25.634;2022-07-23T11:02:46;99371.13;;;37.31;22.41
34712;BME280;20941;42.408;25.634;2022-07-23T11:05:17;99369.78;;;37.41;22.24
34712;BME280;20941;42.408;25.634;2022-07-23T11:08:18;99365.53;;;37.42;23.14
34712;BME280;20941;42.408;25.634;2022-07-23T11:10:51;99361.53;;;37.55;22.71
34712;BME280;20941;42.408;25.634;2022-07-23T11:13:46;99357.78;;;37.69;21.81
34712;BME280;20941;42.408;25.634;2022-07-23T11:16:18;99351.22;;;37.75;21.69
34712;BME280;20941;42.408;25.634;2022-07-23T11:24:06;99355.88;;;38.11;21.93
34712;BME280;20941;42.408;25.634;2022-07-23T11:34:43;99356.28;;;38.34;20.91
34712;BME280;20941;42.408;25.634;2022-07-23T11:37:26;99347.16;;;38.32;20.89
34712;BME280;20941;42.408;25.634;2022-07-23T11:39:56;99347.34;;;38.43;20.97
34712;BME280;20941;42.408;25.634;2022-07-23T11:42:22;99310.94;;;38.20;21.26
34712;BME280;20941;42.408;25.634;2022-07-23T11:44:50;99348.41;;;38.10;21.30
34712;BME280;20941;42.408;25.634;2022-07-23T11:47:21;99338.19;;;37.91;21.59
34712;BME280;20941;42.408;25.634;2022-07-23T11:49:58;99332.81;;;37.89;21.76
34712;BME280;20941;42.408;25.634;2022-07-23T11:52:25;99335.03;;;38.09;21.55
34712;BME280;20941;42.408;25.634;2022-07-23T11:54:57;99335.00;;;38.24;21.21
34712;BME280;20941;42.408;25.634;2022-07-23T11:57:25;99338.75;;;38.40;21.11
34712;BME280;20941;42.408;25.634;2022-07-23T11:59:56;99320.19;;;38.48;21.22
34712;BME280;20941;42.408;25.634;2022-07-23T12:02:22;99320.50;;;38.71;21.08
34712;BME280;20941;42.408;25.634;2022-07-23T12:04:50;99318.72;;;38.59;20.82
34712;BME280;20941;42.408;25.634;2022-07-23T12:09:54;99328.44;;;38.65;20.79
34712;BME280;20941;42.408;25.634;2022-07-23T12:12:21;99322.53;;;38.44;20.77
34712;BME280;20941;42.408;25.634;2022-07-23T12:17:18;99325.25;;;38.48;20.57
34712;BME280;20941;42.408;25.634;2022-07-23T12:19:44;99329.13;;;38.39;20.91
34712;BME280;20941;42.408;25.634;2022-07-23T12:22:10;99308.91;;;38.62;20.76
34712;BME280;20941;42.408;25.634;2022-07-23T12:24:56;99312.09;;;38.99;20.55
34712;BME280;20941;42.408;25.634;2022-07-23T12:27:22;99311.72;;;39.33;20.40
34712;BME280;20941;42.408;25.634;2022-07-23T12:29:48;99306.19;;;39.41;20.53
34712;BME280;20941;42.408;25.634;2022-07-23T12:35:02;99296.09;;;39.47;20.28
34712;BME280;20941;42.408;25.634;2022-07-23T12:37:29;99308.53;;;39.63;20.04
34712;BME280;20941;42.408;25.634;2022-07-23T12:39:55;99303.97;;;39.62;19.83
34712;BME280;20941;42.408;25.634;2022-07-23T12:42:20;99300.63;;;39.48;19.99
34712;BME280;20941;42.408;25.634;2022-07-23T12:45:09;99304.19;;;39.53;20.17
34712;BME280;20941;42.408;25.634;2022-07-23T12:50:37;99308.97;;;39.76;19.65
34712;BME280;20941;42.408;25.634;2022-07-23T12:53:17;99312.22;;;39.78;19.83
34712;BME280;20941;42.408;25.634;2022-07-23T12:55:44;99303.84;;;39.71;20.08
34712;BME280;20941;42.408;25.634;2022-07-23T12:58:18;99277.16;;;39.54;19.84
34712;BME280;20941;42.408;25.634;2022-07-23T13:00:59;99286.25;;;39.77;20.06
34712;BME280;20941;42.408;25.634;2022-07-23T13:03:33;99289.41;;;40.05;20.00
34712;BME280;20941;42.408;25.634;2022-07-23T13:05:59;99284.28;;;40.32;19.01
34712;BME280;20941;42.408;25.634;2022-07-23T13:08:27;99278.31;;;40.58;18.67
34712;BME280;20941;42.408;25.634;2022-07-23T13:10:53;99277.56;;;40.69;18.66
34712;BME280;20941;42.408;25.634;2022-07-23T13:13:27;99277.91;;;40.94;18.75
34712;BME280;20941;42.408;25.634;2022-07-23T13:15:54;99273.34;;;40.93;18.49
34712;BME280;20941;42.408;25.634;2022-07-23T13:18:20;99269.97;;;41.06;18.62
34712;BME280;20941;42.408;25.634;2022-07-23T13:20:47;99257.94;;;41.21;18.46
34712;BME280;20941;42.408;25.634;2022-07-23T13:23:13;99260.44;;;41.45;18.09
34712;BME280;20941;42.408;25.634;2022-07-23T13:25:39;99267.69;;;41.50;17.45
34712;BME280;20941;42.408;25.634;2022-07-23T13:28:05;99263.13;;;41.72;17.50
34712;BME280;20941;42.408;25.634;2022-07-23T13:30:30;99258.03;;;41.66;17.04